Time;durP1;ratioP1;P1;durP2;ratioP2;P2;SDS_P1;SDS_P2;PMS_P1;PMS_P2;Temp;Humidity;BMP_temperature;BMP_pressure;BME280_temperature;BME280_humidity;BME280_pressure;Samples;Min_cycle;Max_cycle;Signal;HPM_P1;HPM_P2
2022/09/13 00:00:55;;;;;;;20.73;13.02;;;17.90;99.90;;;;;;3061544;19;20015;-72
2022/09/13 00:02:01;;;;;;;;;;;17.90;99.90;;;;;;3061097;19;20010;-72
2022/09/13 00:03:03;;;;;;;20.42;13.23;;;17.70;99.90;;;;;;3059377;19;20359;-73
2022/09/13 00:04:07;;;;;;;21.58;13.80;;;17.80;99.90;;;;;;3061629;19;20011;-72
2022/09/13 00:05:09;;;;;;;20.60;14.00;;;17.60;99.90;;;;;;3059114;19;20018;-73
2022/09/13 00:06:14;;;;;;;20.25;13.52;;;17.90;99.90;;;;;;3059580;19;20057;-73
2022/09/13 00:07:16;;;;;;;20.80;14.32;;;17.70;99.90;;;;;;3060496;19;20014;-73
2022/09/13 00:08:20;;;;;;;21.10;14.50;;;17.80;99.90;;;;;;3059681;19;20033;-72
2022/09/13 00:09:21;;;;;;;20.52;13.05;;;17.90;99.90;;;;;;3060267;19;20006;-72
2022/09/13 00:10:26;;;;;;;21.60;14.35;;;17.70;99.90;;;;;;3060367;19;20014;-73
2022/09/13 00:11:30;;;;;;;22.17;14.52;;;17.80;99.90;;;;;;3060135;19;20014;-73
2022/09/13 00:12:33;;;;;;;23.75;14.60;;;17.70;99.90;;;;;;3060724;19;20018;-72
2022/09/13 00:13:35;;;;;;;25.15;15.30;;;17.80;99.90;;;;;;3061150;19;20033;-74
2022/09/13 00:14:39;;;;;;;24.30;14.98;;;17.80;99.90;;;;;;3060992;19;20036;-72
2022/09/13 00:15:42;;;;;;;26.42;15.55;;;17.90;99.90;;;;;;3061342;19;20498;-72
2022/09/13 00:16:46;;;;;;;26.48;15.35;;;17.70;99.90;;;;;;3058594;19;20019;-72
2022/09/13 00:17:50;;;;;;;26.98;15.43;;;17.80;99.90;;;;;;3059913;19;20014;-72
2022/09/13 00:18:56;;;;;;;22.05;14.93;;;17.70;99.90;;;;;;3059202;19;20027;-72
2022/09/13 00:19:57;;;;;;;21.75;14.95;;;17.50;99.90;;;;;;3058935;19;20023;-72
2022/09/13 00:21:09;;;;;;;25.00;15.57;;;17.50;99.90;;;;;;3060098;19;20467;-73
2022/09/13 00:22:10;;;;;;;;;;;17.70;99.90;;;;;;3060492;19;20018;-73
2022/09/13 00:23:14;;;;;;;24.95;16.05;;;17.60;99.90;;;;;;3060323;19;19939;-72
2022/09/13 00:24:16;;;;;;;22.85;15.40;;;17.50;99.90;;;;;;3059734;19;20037;-72
2022/09/13 00:25:20;;;;;;;21.90;14.73;;;17.50;99.90;;;;;;3060211;19;20467;-72
2022/09/13 00:26:24;;;;;;;25.23;15.32;;;17.60;99.90;;;;;;3058650;19;20026;-73
2022/09/13 00:27:28;;;;;;;23.45;15.50;;;17.60;99.90;;;;;;3059310;19;20014;-72
2022/09/13 00:28:29;;;;;;;21.65;14.63;;;17.80;99.90;;;;;;3059637;19;20015;-72
2022/09/13 00:29:33;;;;;;;24.55;14.70;;;17.60;99.90;;;;;;3059835;19;20018;-73
2022/09/13 00:30:35;;;;;;;22.48;15.63;;;17.60;99.90;;;;;;3058571;19;20097;-72
2022/09/13 00:31:38;;;;;;;25.70;15.63;;;17.60;99.90;;;;;;3059049;19;20010;-72
2022/09/13 00:32:40;;;;;;;23.48;14.88;;;17.60;99.90;;;;;;3059366;19;20010;-73
2022/09/13 00:33:46;;;;;;;23.63;15.05;;;17.70;99.90;;;;;;3060539;19;20015;-73
2022/09/13 00:34:47;;;;;;;25.42;15.82;;;17.70;99.90;;;;;;3059943;19;20014;-72
2022/09/13 00:35:51;;;;;;;24.33;15.32;;;17.70;99.90;;;;;;3060587;19;20019;-73
2022/09/13 00:36:53;;;;;;;21.67;14.93;;;17.70;99.90;;;;;;3061145;19;20014;-72
2022/09/13 00:37:56;;;;;;;25.42;15.40;;;17.60;99.90;;;;;;3059436;19;20021;-72
2022/09/13 00:39:02;;;;;;;23.90;16.00;;;17.70;99.90;;;;;;3059386;19;20490;-72
2022/09/13 00:40:06;;;;;;;22.30;14.70;;;17.70;99.90;;;;;;3060113;19;20018;-72
2022/09/13 00:41:13;;;;;;;24.48;14.63;;;17.70;99.90;;;;;;3058654;19;20018;-72
2022/09/13 00:42:14;;;;;;;22.27;14.88;;;17.80;99.90;;;;;;3059418;19;20027;-72
2022/09/13 00:43:21;;;;;;;22.88;15.10;;;17.70;99.90;;;;;;3058490;19;20018;-73
2022/09/13 00:44:51;;;;;;;23.08;15.10;;;17.90;99.90;;;;;;3061310;19;20014;-73
2022/09/13 00:45:55;;;;;;;21.83;14.82;;;17.70;99.90;;;;;;3058934;19;20429;-73
2022/09/13 00:46:57;;;;;;;21.85;14.60;;;17.60;99.90;;;;;;3059170;19;20015;-72
2022/09/13 00:48:07;;;;;;;25.50;15.63;;;17.60;99.90;;;;;;3058433;19;20018;-73
2022/09/13 00:49:17;;;;;;;24.92;15.68;;;17.70;99.90;;;;;;3060354;19;20018;-71
2022/09/13 00:50:25;;;;;;;22.67;15.07;;;17.40;99.90;;;;;;3058557;19;20487;-72
2022/09/13 00:51:27;;;;;;;23.40;15.73;;;17.50;99.90;;;;;;3058387;19;20015;-73
2022/09/13 00:52:34;;;;;;;23.45;14.52;;;17.50;99.90;;;;;;3058746;19;20155;-72
2022/09/13 00:53:40;;;;;;;25.17;15.02;;;17.50;99.90;;;;;;3059878;19;20026;-73
2022/09/13 00:54:48;;;;;;;25.10;15.88;;;17.50;99.90;;;;;;3059055;19;20576;-72
2022/09/13 00:55:52;;;;;;;21.95;15.00;;;17.60;99.90;;;;;;3058774;19;20026;-73
2022/09/13 00:56:58;;;;;;;22.30;14.70;;;17.60;99.90;;;;;;3059030;19;20022;-73
2022/09/13 00:58:05;;;;;;;21.23;14.80;;;17.60;99.90;;;;;;3059237;19;20014;-73
2022/09/13 00:59:15;;;;;;;23.15;15.18;;;17.70;99.90;;;;;;3059497;19;20018;-72
2022/09/13 01:00:18;;;;;;;26.25;15.02;;;17.50;99.90;;;;;;3058720;19;20014;-75
2022/09/13 01:01:27;;;;;;;22.92;15.23;;;17.70;99.90;;;;;;3058608;19;20018;-72
2022/09/13 01:02:28;;;;;;;21.40;13.93;;;17.70;99.90;;;;;;3059830;19;20019;-72
2022/09/13 01:03:35;;;;;;;24.13;15.38;;;17.60;99.90;;;;;;3059499;19;20014;-73
2022/09/13 01:04:40;;;;;;;23.52;15.43;;;17.70;99.90;;;;;;3058782;19;20128;-73
2022/09/13 01:05:48;;;;;;;25.75;15.75;;;17.40;99.90;;;;;;3058651;19;20022;-73
2022/09/13 01:06:53;;;;;;;22.67;15.07;;;17.60;99.90;;;;;;3058614;19;20027;-73
2022/09/13 01:07:58;;;;;;;22.70;14.63;;;17.40;99.90;;;;;;3060271;19;20013;-72
2022/09/13 01:09:03;;;;;;;23.42;14.68;;;17.40;99.90;;;;;;3058860;19;20014;-73
2022/09/13 01:10:09;;;;;;;22.02;15.20;;;17.70;99.90;;;;;;3058144;19;20357;-73
2022/09/13 01:11:16;;;;;;;23.85;15.50;;;17.70;99.90;;;;;;3059377;19;20006;-73
2022/09/13 01:12:30;;;;;;;22.88;14.88;;;17.50;99.90;;;;;;3057936;19;20024;-73
2022/09/13 01:13:34;;;;;;;23.77;15.25;;;17.60;99.90;;;;;;3059356;19;20003;-73
2022/09/13 01:14:38;;;;;;;23.27;15.70;;;17.40;99.90;;;;;;3059427;19;20010;-74
2022/09/13 01:15:40;;;;;;;23.05;15.65;;;17.40;99.90;;;;;;3058713;19;20022;-73
2022/09/13 01:16:44;;;;;;;24.75;15.93;;;17.60;99.90;;;;;;3058376;19;20013;-72
2022/09/13 01:17:46;;;;;;;23.35;15.73;;;17.60;99.90;;;;;;3058369;19;20045;-73
2022/09/13 01:18:50;;;;;;;27.15;15.85;;;17.90;99.90;;;;;;3059948;19;20022;-72
2022/09/13 01:19:54;;;;;;;21.20;14.98;;;17.50;99.90;;;;;;3059122;19;20018;-73
2022/09/13 01:21:46;;;;;;;23.70;15.98;;;17.40;99.90;;;;;;3058895;19;20106;-72
2022/09/13 01:23:21;;;;;;;24.52;15.85;;;17.50;99.90;;;;;;3059053;19;20011;-73
2022/09/13 01:24:51;;;;;;;28.27;17.05;;;17.20;99.90;;;;;;3058916;19;20014;-72
2022/09/13 01:26:37;;;;;;;26.35;16.02;;;17.50;99.90;;;;;;3059813;19;20015;-73
2022/09/13 01:27:56;;;;;;;25.50;15.95;;;17.30;99.90;;;;;;3058921;19;20022;-73
2022/09/13 01:29:28;;;;;;;28.23;16.67;;;17.30;99.90;;;;;;3058627;19;20018;-73
2022/09/13 01:30:35;;;;;;;25.13;15.43;;;17.10;99.90;;;;;;3058708;19;20018;-72
2022/09/13 01:31:44;;;;;;;27.35;16.98;;;17.10;99.90;;;;;;3058870;19;20010;-73
2022/09/13 01:33:05;;;;;;;27.85;15.63;;;17.10;99.90;;;;;;3058274;19;20022;-73
2022/09/13 01:34:21;;;;;;;26.92;16.33;;;17.20;99.90;;;;;;3058952;19;20002;-72
2022/09/13 01:35:33;;;;;;;34.55;16.50;;;17.30;99.90;;;;;;3059141;19;20025;-72
2022/09/13 01:36:56;;;;;;;29.17;16.27;;;17.30;99.90;;;;;;3060577;19;20019;-73
2022/09/13 01:38:05;;;;;;;25.88;15.75;;;17.30;99.90;;;;;;3058576;19;20036;-72
2022/09/13 01:39:15;;;;;;;29.05;16.33;;;17.20;99.90;;;;;;3058911;19;20015;-72
2022/09/13 01:40:31;;;;;;;24.65;14.85;;;17.20;99.90;;;;;;3060047;19;20015;-73
2022/09/13 01:41:49;;;;;;;24.80;14.75;;;17.20;99.90;;;;;;3056779;19;20010;-73
2022/09/13 01:43:06;;;;;;;22.05;13.88;;;17.20;99.90;;;;;;3058918;19;20010;-72
2022/09/13 01:44:16;;;;;;;23.20;14.00;;;17.20;99.90;;;;;;3058341;19;20493;-73
2022/09/13 01:45:29;;;;;;;22.25;13.60;;;17.20;99.90;;;;;;3059602;19;20035;-72
2022/09/13 01:46:38;;;;;;;23.75;13.77;;;17.20;99.90;;;;;;3058967;19;20019;-73
2022/09/13 01:47:51;;;;;;;20.85;13.23;;;17.20;99.90;;;;;;3058563;19;20011;-73
2022/09/13 01:48:58;;;;;;;19.98;12.77;;;17.20;99.90;;;;;;3058115;19;20065;-73
2022/09/13 01:50:13;;;;;;;19.73;12.98;;;17.00;99.90;;;;;;3058785;19;20018;-72
2022/09/13 01:51:25;;;;;;;18.05;11.90;;;17.10;99.90;;;;;;3058321;19;20509;-73
2022/09/13 01:52:33;;;;;;;19.30;12.20;;;17.00;99.90;;;;;;3058999;19;20014;-73
2022/09/13 01:53:46;;;;;;;19.38;11.63;;;17.20;99.90;;;;;;3055927;19;20093;-74
2022/09/13 01:54:59;;;;;;;22.98;11.68;;;17.10;99.90;;;;;;3055394;19;20550;-72
2022/09/13 01:56:05;;;;;;;19.75;11.88;;;17.30;99.90;;;;;;3058589;19;20357;-72
2022/09/13 01:57:16;;;;;;;14.90;11.45;;;17.20;99.90;;;;;;3057883;19;20018;-73
2022/09/13 01:58:24;;;;;;;16.33;11.32;;;17.20;99.90;;;;;;3058307;19;20010;-73
2022/09/13 01:59:38;;;;;;;18.40;11.63;;;17.30;99.90;;;;;;3059137;19;20014;-73
2022/09/13 02:00:47;;;;;;;17.67;11.25;;;17.20;99.90;;;;;;3058961;19;20031;-72
2022/09/13 02:01:59;;;;;;;17.75;11.80;;;17.00;99.90;;;;;;3058522;19;20033;-73
2022/09/13 02:03:06;;;;;;;17.55;11.15;;;17.20;99.90;;;;;;3058514;19;20018;-72
2022/09/13 02:04:13;;;;;;;17.65;11.57;;;17.30;99.90;;;;;;3058747;19;20038;-73
2022/09/13 02:05:20;;;;;;;18.25;11.25;;;17.50;99.90;;;;;;3057371;19;20014;-73
2022/09/13 02:06:28;;;;;;;17.67;10.95;;;17.10;99.90;;;;;;3058307;19;20077;-73
2022/09/13 02:07:33;;;;;;;16.88;10.55;;;17.00;99.90;;;;;;3057373;19;20037;-73
2022/09/13 02:08:42;;;;;;;17.52;11.48;;;17.00;99.90;;;;;;3057533;19;20019;-74
2022/09/13 02:09:48;;;;;;;18.25;11.68;;;17.00;99.90;;;;;;3058139;19;20037;-73
2022/09/13 02:10:56;;;;;;;15.80;10.88;;;17.10;99.90;;;;;;3058362;19;20032;-73
2022/09/13 02:12:02;;;;;;;18.42;11.65;;;17.10;99.90;;;;;;3057998;19;20022;-72
2022/09/13 02:13:09;;;;;;;14.77;10.30;;;17.20;99.90;;;;;;3058602;19;20010;-73
2022/09/13 02:14:14;;;;;;;18.90;11.25;;;17.30;99.90;;;;;;3058961;19;20021;-73
2022/09/13 02:15:23;;;;;;;18.55;11.10;;;17.30;99.90;;;;;;3057794;19;20003;-72
2022/09/13 02:16:28;;;;;;;17.85;11.10;;;17.30;99.90;;;;;;3059036;19;20467;-73
2022/09/13 02:17:39;;;;;;;15.50;10.82;;;17.30;99.90;;;;;;3057325;19;20018;-72
2022/09/13 02:18:43;;;;;;;16.98;10.90;;;17.30;99.90;;;;;;3058498;19;20367;-73
2022/09/13 02:19:55;;;;;;;14.35;10.55;;;17.30;99.90;;;;;;3059179;19;20010;-73
2022/09/13 02:21:01;;;;;;;15.48;11.00;;;17.30;99.90;;;;;;3056877;19;20011;-72
2022/09/13 02:22:07;;;;;;;15.57;10.88;;;17.40;99.90;;;;;;3058725;19;20002;-74
2022/09/13 02:23:12;;;;;;;17.45;11.10;;;17.30;99.90;;;;;;3058574;19;20014;-73
2022/09/13 02:24:20;;;;;;;18.15;10.95;;;17.40;99.90;;;;;;3058387;19;20014;-73
2022/09/13 02:25:24;;;;;;;17.05;10.80;;;17.30;99.90;;;;;;3058325;19;20014;-72
2022/09/13 02:26:31;;;;;;;15.20;10.02;;;17.20;99.90;;;;;;3058279;19;20356;-73
2022/09/13 02:27:35;;;;;;;15.13;10.20;;;17.30;99.90;;;;;;3058385;19;20022;-73
2022/09/13 02:28:43;;;;;;;15.23;10.45;;;17.30;99.90;;;;;;3057629;19;20002;-73
2022/09/13 02:29:49;;;;;;;15.65;10.35;;;17.30;99.90;;;;;;3058202;19;20029;-73
2022/09/13 02:30:54;;;;;;;17.85;10.55;;;17.30;99.90;;;;;;3057404;19;20014;-72
2022/09/13 02:32:02;;;;;;;15.68;9.80;;;17.40;99.90;;;;;;3058316;19;20017;-73
2022/09/13 02:33:13;;;;;;;14.20;10.00;;;17.20;99.90;;;;;;3059672;19;20040;-73
2022/09/13 02:34:19;;;;;;;14.65;9.52;;;17.30;99.90;;;;;;3058471;19;20014;-72
2022/09/13 02:35:27;;;;;;;13.48;9.48;;;17.30;99.90;;;;;;3058384;19;20007;-73
2022/09/13 02:36:34;;;;;;;16.23;9.88;;;17.30;99.90;;;;;;3059365;19;20014;-73
2022/09/13 02:37:41;;;;;;;13.75;9.00;;;17.30;99.90;;;;;;3057054;19;20017;-73
2022/09/13 02:38:46;;;;;;;14.02;8.60;;;17.30;99.90;;;;;;3058512;19;20006;-73
2022/09/13 02:39:55;;;;;;;14.15;9.15;;;17.40;99.90;;;;;;3057977;19;20100;-73
2022/09/13 02:41:00;;;;;;;11.45;8.32;;;17.30;99.90;;;;;;3057044;19;20482;-73
2022/09/13 02:42:10;;;;;;;14.23;8.80;;;17.30;99.90;;;;;;3059604;19;20022;-73
2022/09/13 02:43:14;;;;;;;12.27;8.60;;;17.30;99.90;;;;;;3058184;19;20419;-73
2022/09/13 02:44:28;;;;;;;12.50;8.73;;;17.30;99.90;;;;;;3059508;19;20015;-73
2022/09/13 02:45:32;;;;;;;11.73;8.18;;;17.50;99.90;;;;;;3057298;19;20026;-73
2022/09/13 02:46:50;;;;;;;14.95;8.85;;;17.40;99.90;;;;;;3057883;19;20015;-73
2022/09/13 02:47:56;;;;;;;11.05;8.05;;;17.30;99.90;;;;;;3057355;19;20482;-73
2022/09/13 02:49:08;;;;;;;12.27;8.10;;;17.40;99.90;;;;;;3057678;19;19998;-73
2022/09/13 02:50:31;;;;;;;13.05;8.25;;;17.40;99.90;;;;;;3059771;19;20010;-73
2022/09/13 02:51:44;;;;;;;12.23;8.45;;;17.30;99.90;;;;;;3057976;19;20002;-73
2022/09/13 02:52:48;;;;;;;;;;;17.40;99.90;;;;;;3058078;19;20021;-74
2022/09/13 02:53:57;;;;;;;11.85;8.25;;;17.20;99.90;;;;;;3058005;19;19911;-73
2022/09/13 02:55:07;;;;;;;14.95;8.77;;;17.30;99.90;;;;;;3057806;19;20033;-74
2022/09/13 02:56:22;;;;;;;14.90;8.50;;;17.30;99.90;;;;;;3058069;19;20070;-73
2022/09/13 02:57:31;;;;;;;12.93;8.57;;;17.20;99.90;;;;;;3057873;19;20103;-73
2022/09/13 02:58:41;;;;;;;12.98;9.23;;;17.20;99.90;;;;;;3058168;19;20023;-73
2022/09/13 02:59:44;;;;;;;15.38;8.75;;;17.20;99.90;;;;;;3057140;19;20022;-73
2022/09/13 03:00:48;;;;;;;12.63;9.07;;;17.30;99.90;;;;;;3058259;19;20023;-73
2022/09/13 03:01:58;;;;;;;13.02;9.02;;;17.40;99.90;;;;;;3057897;19;20014;-73
2022/09/13 03:03:06;;;;;;;13.65;9.02;;;17.20;99.90;;;;;;3059247;19;20515;-73
2022/09/13 03:04:10;;;;;;;11.88;9.02;;;17.30;99.90;;;;;;3057488;19;20014;-73
2022/09/13 03:05:14;;;;;;;14.23;9.35;;;17.30;99.90;;;;;;3058694;19;20018;-73
2022/09/13 03:06:22;;;;;;;14.35;9.98;;;17.20;99.90;;;;;;3060367;19;20101;-73
2022/09/13 03:07:26;;;;;;;13.95;8.93;;;17.40;99.90;;;;;;3061078;19;20018;-73
2022/09/13 03:08:29;;;;;;;14.20;9.65;;;17.30;99.90;;;;;;3061805;19;20018;-73
2022/09/13 03:09:33;;;;;;;12.77;9.40;;;17.20;99.90;;;;;;3061211;19;20018;-73
2022/09/13 03:10:45;;;;;;;14.48;9.15;;;17.20;99.90;;;;;;3059466;19;20007;-73
2022/09/13 03:12:04;;;;;;;14.15;9.70;;;17.50;99.90;;;;;;3060622;19;20081;-73
2022/09/13 03:13:41;;;;;;;14.32;9.55;;;17.30;99.90;;;;;;3061125;19;20018;-73
2022/09/13 03:14:54;;;;;;;15.85;9.68;;;17.30;99.90;;;;;;3060524;19;20002;-74
2022/09/13 03:16:05;;;;;;;;;;;17.40;99.90;;;;;;3063685;19;20021;-73
2022/09/13 03:17:18;;;;;;;12.98;8.95;;;17.40;99.90;;;;;;3060423;19;19914;-73
2022/09/13 03:18:37;;;;;;;16.05;9.52;;;17.20;99.90;;;;;;3061917;19;20047;-73
2022/09/13 03:19:55;;;;;;;14.10;9.95;;;17.30;99.90;;;;;;3060095;19;20025;-73
2022/09/13 03:21:09;;;;;;;16.98;9.98;;;17.10;99.90;;;;;;3060859;19;20023;-74
2022/09/13 03:22:27;;;;;;;15.75;9.13;;;17.10;99.90;;;;;;3061779;19;20025;-73
2022/09/13 03:23:47;;;;;;;13.73;9.32;;;17.30;99.90;;;;;;3061115;19;20352;-72
2022/09/13 03:24:58;;;;;;;12.88;9.27;;;17.20;99.90;;;;;;3060440;19;20043;-73
2022/09/13 03:26:27;;;;;;;15.70;9.80;;;17.30;99.90;;;;;;3060583;19;20560;-72
2022/09/13 03:27:36;;;;;;;14.75;9.88;;;17.20;99.90;;;;;;3057366;19;20022;-72
2022/09/13 03:28:49;;;;;;;13.13;9.50;;;17.40;99.90;;;;;;3060596;19;20337;-73
2022/09/13 03:29:57;;;;;;;16.52;10.15;;;17.10;99.90;;;;;;3059800;19;20750;-74
2022/09/13 03:31:08;;;;;;;14.10;9.57;;;17.20;99.90;;;;;;3059437;19;20082;-73
2022/09/13 03:32:20;;;;;;;16.50;10.18;;;17.20;99.90;;;;;;3061931;19;20073;-72
2022/09/13 03:33:33;;;;;;;15.10;10.15;;;17.20;99.90;;;;;;3060589;19;20475;-72
2022/09/13 03:34:44;;;;;;;15.63;10.38;;;17.30;99.90;;;;;;3060549;19;20359;-72
2022/09/13 03:35:56;;;;;;;18.30;10.80;;;17.30;99.90;;;;;;3059542;19;20086;-73
2022/09/13 03:37:07;;;;;;;15.82;10.90;;;17.20;99.90;;;;;;3061923;19;20035;-72
2022/09/13 03:38:12;;;;;;;17.20;10.95;;;17.20;99.90;;;;;;3060736;19;20015;-73
2022/09/13 03:39:24;;;;;;;16.00;10.48;;;17.30;99.90;;;;;;3060438;19;20479;-73
2022/09/13 03:40:36;;;;;;;15.98;10.25;;;17.20;99.90;;;;;;3060069;19;20509;-73
2022/09/13 03:41:44;;;;;;;17.83;11.05;;;17.20;99.90;;;;;;3059702;19;20077;-73
2022/09/13 03:42:52;;;;;;;16.63;11.20;;;17.00;99.90;;;;;;3060305;19;20009;-74
2022/09/13 03:44:00;;;;;;;15.75;11.20;;;17.20;99.90;;;;;;3061868;19;20522;-72
2022/09/13 03:45:03;;;;;;;15.52;11.20;;;17.10;99.90;;;;;;3060325;19;20351;-72
2022/09/13 03:46:11;;;;;;;16.35;11.25;;;17.30;99.90;;;;;;3059883;19;20017;-73
2022/09/13 03:47:14;;;;;;;18.17;11.57;;;17.10;99.90;;;;;;3059914;19;20020;-72
2022/09/13 03:48:20;;;;;;;17.13;10.35;;;17.30;99.90;;;;;;3059761;19;20022;-73
2022/09/13 03:49:25;;;;;;;22.08;11.35;;;17.20;99.90;;;;;;3061140;19;20015;-74
2022/09/13 03:50:32;;;;;;;15.05;10.80;;;17.30;99.90;;;;;;3060155;19;20482;-74
2022/09/13 03:51:34;;;;;;;16.35;10.70;;;17.20;99.90;;;;;;3060238;19;20024;-73
2022/09/13 03:52:38;;;;;;;16.98;11.18;;;17.20;99.90;;;;;;3059548;19;20006;-73
2022/09/13 03:53:45;;;;;;;19.17;11.68;;;17.30;99.90;;;;;;3060089;19;20021;-73
2022/09/13 03:54:49;;;;;;;17.85;11.32;;;17.20;99.90;;;;;;3057606;19;20021;-72
2022/09/13 03:55:50;;;;;;;16.58;10.60;;;17.20;99.90;;;;;;3059976;19;20059;-72
2022/09/13 03:57:12;;;;;;;19.08;11.07;;;17.30;99.90;;;;;;3059730;19;20049;-72
2022/09/13 03:58:15;;;;;;;20.20;11.20;;;17.10;99.90;;;;;;3062066;19;20687;-72
2022/09/13 03:59:20;;;;;;;16.50;11.15;;;17.20;99.90;;;;;;3060287;19;20018;-72
2022/09/13 04:00:24;;;;;;;19.38;12.20;;;17.00;99.90;;;;;;3059495;19;20006;-72
2022/09/13 04:01:26;;;;;;;14.48;10.20;;;17.10;99.90;;;;;;3058502;19;20037;-72
2022/09/13 04:02:30;;;;;;;;;;;17.20;99.90;;;;;;3061295;19;20041;-72
2022/09/13 04:03:31;;;;;;;15.13;10.20;;;17.00;99.90;;;;;;3060104;19;19915;-72
2022/09/13 04:04:35;;;;;;;16.33;9.85;;;17.00;99.90;;;;;;3060303;19;20010;-72
2022/09/13 04:05:39;;;;;;;16.90;9.20;;;16.90;99.90;;;;;;3060798;19;20352;-72
2022/09/13 04:06:43;;;;;;;13.45;8.02;;;17.00;99.90;;;;;;3059872;19;20011;-72
2022/09/13 04:07:44;;;;;;;12.85;7.70;;;17.10;99.90;;;;;;3059232;19;20006;-72
2022/09/13 04:08:48;;;;;;;;;;;16.90;99.90;;;;;;3059187;19;20026;-72
2022/09/13 04:09:50;;;;;;;11.02;7.25;;;16.90;99.90;;;;;;3060020;19;19922;-72
2022/09/13 04:10:53;;;;;;;11.10;6.68;;;16.70;99.90;;;;;;3059941;19;20027;-72
2022/09/13 04:11:55;;;;;;;10.38;5.97;;;16.80;99.90;;;;;;3059396;19;20094;-72
2022/09/13 04:12:59;;;;;;;11.73;6.72;;;16.90;99.90;;;;;;3059526;19;20011;-72
2022/09/13 04:14:00;;;;;;;11.55;6.65;;;17.00;99.90;;;;;;3059900;19;20006;-74
2022/09/13 04:15:04;;;;;;;10.68;6.65;;;17.00;99.90;;;;;;3059233;19;20440;-74
2022/09/13 04:16:06;;;;;;;9.73;6.80;;;17.00;99.90;;;;;;3060323;19;20453;-73
2022/09/13 04:17:10;;;;;;;11.57;6.50;;;17.10;99.90;;;;;;3058448;19;20022;-72
2022/09/13 04:18:11;;;;;;;12.15;6.80;;;16.90;99.90;;;;;;3059014;19;20021;-74
2022/09/13 04:19:15;;;;;;;9.52;7.07;;;17.00;99.90;;;;;;3059889;19;20033;-73
2022/09/13 04:20:17;;;;;;;12.52;7.63;;;17.00;99.90;;;;;;3059602;19;20367;-73
2022/09/13 04:21:23;;;;;;;11.85;7.88;;;17.10;99.90;;;;;;3060015;19;20058;-73
2022/09/13 04:22:25;;;;;;;11.38;7.82;;;17.20;99.90;;;;;;3060147;19;20563;-72
2022/09/13 04:23:30;;;;;;;14.70;9.73;;;17.00;99.90;;;;;;3059996;19;20006;-73
2022/09/13 04:24:31;;;;;;;12.55;8.70;;;17.10;99.90;;;;;;3060147;19;20015;-73
2022/09/13 04:25:35;;;;;;;15.00;9.63;;;17.00;99.90;;;;;;3060035;19;20467;-73
2022/09/13 04:26:37;;;;;;;14.27;9.15;;;17.10;99.90;;;;;;3061525;19;20035;-73
2022/09/13 04:27:41;;;;;;;16.35;10.25;;;19.10;99.90;;;;;;3058818;19;20032;-73
2022/09/13 04:28:43;;;;;;;14.23;9.43;;;17.10;99.90;;;;;;3059767;19;20015;-73
2022/09/13 04:29:46;;;;;;;16.52;10.00;;;17.10;99.90;;;;;;3060186;19;20701;-73
2022/09/13 04:30:49;;;;;;;14.95;9.30;;;17.00;99.90;;;;;;3059069;19;20018;-73
2022/09/13 04:31:55;;;;;;;13.50;9.15;;;17.10;99.90;;;;;;3058522;19;20853;-73
2022/09/13 04:32:56;;;;;;;16.85;9.45;;;17.10;99.90;;;;;;3058780;19;20010;-73
2022/09/13 04:34:00;;;;;;;16.15;9.32;;;17.10;99.90;;;;;;3059746;19;20037;-73
2022/09/13 04:35:05;;;;;;;16.13;9.40;;;17.20;99.90;;;;;;3058985;19;20002;-73
2022/09/13 04:36:06;;;;;;;11.90;8.73;;;17.20;99.90;;;;;;3059779;19;20395;-73
2022/09/13 04:37:13;;;;;;;11.80;8.15;;;17.20;99.90;;;;;;3059179;19;20497;-73
2022/09/13 04:38:14;;;;;;;12.23;8.30;;;17.10;99.90;;;;;;3059669;19;20013;-72
2022/09/13 04:39:18;;;;;;;13.63;8.77;;;17.20;99.90;;;;;;3058145;19;20011;-73
2022/09/13 04:40:20;;;;;;;13.25;8.32;;;17.10;99.90;;;;;;3058559;19;20040;-73
2022/09/13 04:41:24;;;;;;;12.15;8.00;;;17.30;99.90;;;;;;3058411;19;20073;-73
2022/09/13 04:42:26;;;;;;;13.52;8.00;;;16.90;99.90;;;;;;3059443;19;20371;-73
2022/09/13 04:43:30;;;;;;;13.60;8.10;;;17.00;99.90;;;;;;3059897;19;20002;-73
2022/09/13 04:44:31;;;;;;;12.23;8.18;;;17.30;99.90;;;;;;3059625;19;20416;-73
2022/09/13 04:45:35;;;;;;;10.35;6.85;;;17.20;99.90;;;;;;3060963;19;20483;-73
2022/09/13 04:46:36;;;;;;;11.25;6.68;;;17.20;99.90;;;;;;3059451;19;20010;-73
2022/09/13 04:47:40;;;;;;;8.77;6.90;;;17.00;99.90;;;;;;3059806;19;20416;-73
2022/09/13 04:48:42;;;;;;;10.70;6.75;;;17.00;99.90;;;;;;3059083;19;20082;-74
2022/09/13 04:49:47;;;;;;;9.90;6.63;;;17.10;99.90;;;;;;3058385;19;20031;-73
2022/09/13 04:50:48;;;;;;;9.98;6.25;;;17.10;99.90;;;;;;3059306;19;20023;-73
2022/09/13 04:51:52;;;;;;;10.77;6.15;;;17.10;99.90;;;;;;3059261;19;20093;-73
2022/09/13 04:52:56;;;;;;;9.70;5.78;;;17.20;99.90;;;;;;3057444;19;20027;-73
2022/09/13 04:54:00;;;;;;;11.40;6.28;;;17.00;99.90;;;;;;3060640;19;20011;-73
2022/09/13 04:55:01;;;;;;;8.10;5.32;;;17.10;99.90;;;;;;3057476;19;20021;-73
2022/09/13 04:56:08;;;;;;;8.75;5.20;;;17.20;99.90;;;;;;3061293;19;20089;-73
2022/09/13 04:57:10;;;;;;;8.50;4.80;;;17.00;99.90;;;;;;3058330;19;20035;-73
2022/09/13 04:58:14;;;;;;;8.88;5.35;;;17.10;99.90;;;;;;3059382;19;20486;-73
2022/09/13 04:59:15;;;;;;;6.80;4.40;;;17.10;99.90;;;;;;3059574;19;20014;-73
2022/09/13 05:00:19;;;;;;;8.85;4.47;;;17.20;99.90;;;;;;3058249;19;20017;-73
2022/09/13 05:01:22;;;;;;;6.57;4.60;;;17.00;99.90;;;;;;3060914;19;20007;-73
2022/09/13 05:02:26;;;;;;;6.40;3.70;;;17.00;99.90;;;;;;3058011;19;20022;-73
2022/09/13 05:03:29;;;;;;;5.75;3.40;;;17.00;99.90;;;;;;3057671;19;20011;-72
2022/09/13 05:04:33;;;;;;;5.75;3.20;;;17.10;99.90;;;;;;3059245;19;20015;-72
2022/09/13 05:05:34;;;;;;;5.00;2.90;;;17.00;99.90;;;;;;3057824;19;20017;-73
2022/09/13 05:06:38;;;;;;;4.88;3.03;;;17.10;99.90;;;;;;3059754;19;20010;-72
2022/09/13 05:07:39;;;;;;;4.13;2.67;;;17.00;99.90;;;;;;3058870;19;20026;-73
2022/09/13 05:08:47;;;;;;;4.22;2.92;;;17.00;99.90;;;;;;3060864;19;20340;-72
2022/09/13 05:09:48;;;;;;;3.55;2.60;;;17.00;99.90;;;;;;3058135;19;20026;-73
2022/09/13 05:10:52;;;;;;;4.82;2.72;;;17.00;99.90;;;;;;3059287;19;20069;-73
2022/09/13 05:11:56;;;;;;;4.78;2.63;;;16.90;99.90;;;;;;3059044;19;20021;-73
2022/09/13 05:12:57;;;;;;;5.25;2.30;;;17.00;99.90;;;;;;3059141;19;20354;-72
2022/09/13 05:14:02;;;;;;;5.60;2.45;;;16.80;99.90;;;;;;3058989;19;20780;-73
2022/09/13 05:15:05;;;;;;;3.03;2.20;;;16.90;99.90;;;;;;3059173;19;19999;-73
2022/09/13 05:16:10;;;;;;;5.60;2.72;;;16.80;99.90;;;;;;3058962;19;20036;-73
2022/09/13 05:17:11;;;;;;;3.75;2.53;;;17.00;99.90;;;;;;3058757;19;20015;-73
2022/09/13 05:18:15;;;;;;;8.35;2.63;;;17.00;99.90;;;;;;3059037;19;20018;-73
2022/09/13 05:19:16;;;;;;;6.90;2.80;;;17.00;99.90;;;;;;3059430;19;20015;-74
2022/09/13 05:20:20;;;;;;;4.95;2.50;;;17.10;99.90;;;;;;3058927;19;20043;-73
2022/09/13 05:21:22;;;;;;;4.47;2.50;;;16.80;99.90;;;;;;3060029;19;20017;-74
2022/09/13 05:22:26;;;;;;;5.57;2.45;;;17.00;99.90;;;;;;3059183;19;20031;-73
2022/09/13 05:23:29;;;;;;;4.10;2.53;;;16.80;99.90;;;;;;3059168;19;20010;-73
2022/09/13 05:24:35;;;;;;;5.10;3.00;;;17.00;99.90;;;;;;3059527;19;20088;-73
2022/09/13 05:25:37;;;;;;;4.78;2.60;;;16.90;99.90;;;;;;3059086;19;20010;-73
2022/09/13 05:26:41;;;;;;;3.83;2.80;;;16.90;99.90;;;;;;3058515;19;20045;-73
2022/09/13 05:27:44;;;;;;;5.78;2.67;;;16.90;99.90;;;;;;3060832;19;20006;-73
2022/09/13 05:28:48;;;;;;;4.45;2.72;;;16.90;99.90;;;;;;3058809;19;20088;-74
2022/09/13 05:29:49;;;;;;;3.58;2.55;;;16.80;99.90;;;;;;3058806;19;19999;-72
2022/09/13 05:30:57;;;;;;;4.28;2.47;;;17.00;99.90;;;;;;3058721;19;20020;-73
2022/09/13 05:31:59;;;;;;;4.20;2.55;;;17.00;99.90;;;;;;3059269;19;19999;-73
2022/09/13 05:33:03;;;;;;;4.32;2.53;;;17.00;99.90;;;;;;3059279;19;20360;-73
2022/09/13 05:34:06;;;;;;;4.50;2.60;;;17.20;99.90;;;;;;3059075;19;20028;-73
2022/09/13 05:35:11;;;;;;;5.55;2.75;;;16.90;99.90;;;;;;3058586;19;20014;-74
2022/09/13 05:36:12;;;;;;;6.47;2.60;;;16.90;99.90;;;;;;3058976;19;20020;-73
2022/09/13 05:37:17;;;;;;;3.53;2.50;;;17.10;99.90;;;;;;3058889;19;20356;-73
2022/09/13 05:38:18;;;;;;;4.85;3.13;;;16.90;99.90;;;;;;3059558;19;20011;-74
2022/09/13 05:39:23;;;;;;;5.43;2.85;;;18.60;99.90;;;;;;3058466;19;20728;-73
2022/09/13 05:40:27;;;;;;;6.78;3.13;;;16.90;99.90;;;;;;3058702;19;20014;-74
2022/09/13 05:41:31;;;;;;;6.47;3.15;;;16.80;99.90;;;;;;3058062;19;20365;-73
2022/09/13 05:42:33;;;;;;;5.70;3.28;;;16.90;99.90;;;;;;3058644;19;20015;-73
2022/09/13 05:43:38;;;;;;;6.35;3.20;;;16.90;99.90;;;;;;3058166;19;20014;-73